sensor_id;sensor_type;location;lat;lon;timestamp;pressure;altitude;pressure_sealevel;temperature;humidity
82575;BME280;72260;65.870;13.210;2024-02-14T00:00:13;100249.03;;;-6.56;66.24
82575;BME280;72260;65.870;13.210;2024-02-14T00:02:44;100245.59;;;-6.53;65.78
82575;BME280;72260;65.870;13.210;2024-02-14T00:05:10;100235.31;;;-6.62;65.77
82575;BME280;72260;65.870;13.210;2024-02-14T00:07:39;100243.00;;;-6.74;67.96
82575;BME280;72260;65.870;13.210;2024-02-14T00:10:05;100248.97;;;-6.80;68.36
82575;BME280;72260;65.870;13.210;2024-02-14T00:12:35;100243.84;;;-6.83;68.37
82575;BME280;72260;65.870;13.210;2024-02-14T00:15:02;100243.00;;;-6.70;68.47
82575;BME280;72260;65.870;13.210;2024-02-14T00:17:28;100246.44;;;-6.85;69.31
82575;BME280;72260;65.870;13.210;2024-02-14T00:19:55;100240.44;;;-6.82;69.16
82575;BME280;72260;65.870;13.210;2024-02-14T00:22:21;100240.41;;;-6.87;68.98
82575;BME280;72260;65.870;13.210;2024-02-14T00:24:47;100226.69;;;-6.93;68.61
82575;BME280;72260;65.870;13.210;2024-02-14T00:27:12;100228.44;;;-6.83;68.02
82575;BME280;72260;65.870;13.210;2024-02-14T00:29:40;100231.84;;;-6.86;68.46
82575;BME280;72260;65.870;13.210;2024-02-14T00:32:06;100223.31;;;-6.83;68.42
82575;BME280;72260;65.870;13.210;2024-02-14T00:34:31;100225.84;;;-6.94;68.26
82575;BME280;72260;65.870;13.210;2024-02-14T00:36:57;100228.41;;;-6.92;68.55
82575;BME280;72260;65.870;13.210;2024-02-14T00:39:22;100224.16;;;-6.87;67.76
82575;BME280;72260;65.870;13.210;2024-02-14T00:41:48;100217.28;;;-6.96;67.92
82575;BME280;72260;65.870;13.210;2024-02-14T00:44:14;100221.53;;;-6.98;67.69
82575;BME280;72260;65.870;13.210;2024-02-14T00:46:43;100216.41;;;-7.02;68.23
82575;BME280;72260;65.870;13.210;2024-02-14T00:49:09;100222.41;;;-6.96;67.92
82575;BME280;72260;65.870;13.210;2024-02-14T00:51:35;100221.53;;;-6.99;68.00
82575;BME280;72260;65.870;13.210;2024-02-14T00:54:03;100225.81;;;-7.01;67.80
82575;BME280;72260;65.870;13.210;2024-02-14T00:56:29;100226.66;;;-7.05;67.00
82575;BME280;72260;65.870;13.210;2024-02-14T00:58:54;100226.69;;;-6.93;67.78
82575;BME280;72260;65.870;13.210;2024-02-14T01:01:20;100225.00;;;-6.81;66.76
82575;BME280;72260;65.870;13.210;2024-02-14T01:03:46;100221.56;;;-6.81;65.75
82575;BME280;72260;65.870;13.210;2024-02-14T01:06:12;100224.97;;;-6.96;66.22
82575;BME280;72260;65.870;13.210;2024-02-14T01:08:39;100221.56;;;-6.87;66.59
82575;BME280;72260;65.870;13.210;2024-02-14T01:11:05;100224.97;;;-6.94;67.35
82575;BME280;72260;65.870;13.210;2024-02-14T01:13:30;100222.44;;;-6.90;66.56
82575;BME280;72260;65.870;13.210;2024-02-14T01:15:56;100213.00;;;-6.80;65.20
82575;BME280;72260;65.870;13.210;2024-02-14T01:18:22;100221.56;;;-6.75;64.69
82575;BME280;72260;65.870;13.210;2024-02-14T01:20:49;100217.31;;;-6.84;65.81
82575;BME280;72260;65.870;13.210;2024-02-14T01:23:14;100222.44;;;-6.91;65.95
82575;BME280;72260;65.870;13.210;2024-02-14T01:25:40;100215.56;;;-6.92;66.17
82575;BME280;72260;65.870;13.210;2024-02-14T01:28:07;100218.13;;;-6.95;66.25
82575;BME280;72260;65.870;13.210;2024-02-14T01:30:34;100212.97;;;-6.98;66.31
82575;BME280;72260;65.870;13.210;2024-02-14T01:33:01;100215.53;;;-7.04;66.95
82575;BME280;72260;65.870;13.210;2024-02-14T01:35:30;100215.53;;;-7.01;66.98
82575;BME280;72260;65.870;13.210;2024-02-14T01:37:55;100196.66;;;-7.13;67.06
82575;BME280;72260;65.870;13.210;2024-02-14T01:40:21;100204.41;;;-7.06;66.37
82575;BME280;72260;65.870;13.210;2024-02-14T01:42:47;100207.84;;;-7.01;67.31
82575;BME280;72260;65.870;13.210;2024-02-14T01:45:13;100212.09;;;-7.11;67.65
82575;BME280;72260;65.870;13.210;2024-02-14T01:47:38;100200.97;;;-7.08;67.06
82575;BME280;72260;65.870;13.210;2024-02-14T01:50:07;100202.69;;;-7.07;66.74
82575;BME280;72260;65.870;13.210;2024-02-14T01:52:38;100203.53;;;-7.12;67.42
82575;BME280;72260;65.870;13.210;2024-02-14T01:55:05;100197.53;;;-7.14;67.09
82575;BME280;72260;65.870;13.210;2024-02-14T01:57:33;100200.09;;;-7.21;67.49
82575;BME280;72260;65.870;13.210;2024-02-14T02:00:00;100199.25;;;-7.22;67.84
82575;BME280;72260;65.870;13.210;2024-02-14T02:02:29;100200.09;;;-7.18;67.54
82575;BME280;72260;65.870;13.210;2024-02-14T02:04:55;100206.94;;;-7.20;67.71
82575;BME280;72260;65.870;13.210;2024-02-14T02:07:20;100200.03;;;-7.36;68.05
82575;BME280;72260;65.870;13.210;2024-02-14T02:09:46;100197.47;;;-7.33;68.00
82575;BME280;72260;65.870;13.210;2024-02-14T02:12:12;100205.19;;;-7.33;67.20
82575;BME280;72260;65.870;13.210;2024-02-14T02:14:37;100201.75;;;-7.34;66.95
82575;BME280;72260;65.870;13.210;2024-02-14T02:17:05;100199.16;;;-7.40;67.04
82575;BME280;72260;65.870;13.210;2024-02-14T02:19:33;100200.06;;;-7.33;66.89
82575;BME280;72260;65.870;13.210;2024-02-14T02:22:00;100191.47;;;-7.34;65.76
82575;BME280;72260;65.870;13.210;2024-02-14T02:24:25;100195.78;;;-7.33;66.42
82575;BME280;72260;65.870;13.210;2024-02-14T02:26:51;100190.66;;;-7.27;66.15
82575;BME280;72260;65.870;13.210;2024-02-14T02:29:17;100191.53;;;-7.25;65.12
82575;BME280;72260;65.870;13.210;2024-02-14T02:31:44;100197.53;;;-7.21;64.56
82575;BME280;72260;65.870;13.210;2024-02-14T02:34:11;100192.38;;;-7.24;64.04
82575;BME280;72260;65.870;13.210;2024-02-14T02:36:36;100181.25;;;-7.22;63.14
82575;BME280;72260;65.870;13.210;2024-02-14T02:39:03;100184.69;;;-7.14;62.33
82575;BME280;72260;65.870;13.210;2024-02-14T02:41:30;100189.00;;;-7.03;62.00
82575;BME280;72260;65.870;13.210;2024-02-14T02:43:57;100184.69;;;-7.21;62.00
82575;BME280;72260;65.870;13.210;2024-02-14T02:46:23;100180.41;;;-7.13;61.64
82575;BME280;72260;65.870;13.210;2024-02-14T02:48:48;100189.81;;;-7.20;62.19
82575;BME280;72260;65.870;13.210;2024-02-14T02:51:17;100191.53;;;-7.20;61.07
82575;BME280;72260;65.870;13.210;2024-02-14T02:53:43;100186.41;;;-7.22;61.53
82575;BME280;72260;65.870;13.210;2024-02-14T02:56:10;100177.81;;;-7.25;60.81
82575;BME280;72260;65.870;13.210;2024-02-14T02:58:38;100174.38;;;-7.29;60.40
82575;BME280;72260;65.870;13.210;2024-02-14T03:01:08;100180.38;;;-7.27;61.03
82575;BME280;72260;65.870;13.210;2024-02-14T03:03:34;100189.81;;;-7.23;59.83
82575;BME280;72260;65.870;13.210;2024-02-14T03:06:00;100187.25;;;-7.26;60.30
82575;BME280;72260;65.870;13.210;2024-02-14T03:08:28;100182.94;;;-7.33;61.28
82575;BME280;72260;65.870;13.210;2024-02-14T03:10:56;100182.91;;;-7.36;60.06
82575;BME280;72260;65.870;13.210;2024-02-14T03:13:25;100178.69;;;-7.25;59.89
82575;BME280;72260;65.870;13.210;2024-02-14T03:15:52;100176.97;;;-7.23;60.12
82575;BME280;72260;65.870;13.210;2024-02-14T03:18:17;100174.44;;;-7.18;59.29
82575;BME280;72260;65.870;13.210;2024-02-14T03:20:43;100165.81;;;-7.31;59.69
82575;BME280;72260;65.870;13.210;2024-02-14T03:23:09;100166.72;;;-7.20;59.69
82575;BME280;72260;65.870;13.210;2024-02-14T03:25:35;100167.53;;;-7.27;59.83
82575;BME280;72260;65.870;13.210;2024-02-14T03:28:02;100159.00;;;-7.23;60.46
82575;BME280;72260;65.870;13.210;2024-02-14T03:30:36;100164.97;;;-7.28;59.92
82575;BME280;72260;65.870;13.210;2024-02-14T03:33:03;100161.53;;;-7.33;60.10
82575;BME280;72260;65.870;13.210;2024-02-14T03:35:28;100153.81;;;-7.38;59.87
82575;BME280;72260;65.870;13.210;2024-02-14T03:37:54;100158.09;;;-7.37;59.83
82575;BME280;72260;65.870;13.210;2024-02-14T03:40:19;100153.81;;;-7.39;60.88
82575;BME280;72260;65.870;13.210;2024-02-14T03:42:46;100152.09;;;-7.39;60.51
82575;BME280;72260;65.870;13.210;2024-02-14T03:45:12;100165.78;;;-7.43;60.40
82575;BME280;72260;65.870;13.210;2024-02-14T03:47:37;100156.38;;;-7.50;60.26
82575;BME280;72260;65.870;13.210;2024-02-14T03:50:05;100170.91;;;-7.43;61.01
82575;BME280;72260;65.870;13.210;2024-02-14T03:52:32;100172.59;;;-7.54;62.09
82575;BME280;72260;65.870;13.210;2024-02-14T03:54:59;100163.16;;;-7.61;62.69
82575;BME280;72260;65.870;13.210;2024-02-14T03:57:25;100162.31;;;-7.60;63.23
82575;BME280;72260;65.870;13.210;2024-02-14T03:59:58;100165.72;;;-7.63;63.60
82575;BME280;72260;65.870;13.210;2024-02-14T04:02:24;100164.00;;;-7.62;62.58
82575;BME280;72260;65.870;13.210;2024-02-14T04:04:53;100168.25;;;-7.70;61.10
82575;BME280;72260;65.870;13.210;2024-02-14T04:07:18;100163.13;;;-7.67;62.38
82575;BME280;72260;65.870;13.210;2024-02-14T04:09:44;100163.16;;;-7.63;61.01
82575;BME280;72260;65.870;13.210;2024-02-14T04:12:10;100160.59;;;-7.64;60.90
82575;BME280;72260;65.870;13.210;2024-02-14T04:14:36;100159.72;;;-7.65;60.27
82575;BME280;72260;65.870;13.210;2024-02-14T04:17:03;100164.03;;;-7.56;60.49
82575;BME280;72260;65.870;13.210;2024-02-14T04:19:29;100166.56;;;-7.68;61.09
82575;BME280;72260;65.870;13.210;2024-02-14T04:21:54;100165.69;;;-7.70;61.66
82575;BME280;72260;65.870;13.210;2024-02-14T04:24:20;100167.44;;;-7.65;61.79
82575;BME280;72260;65.870;13.210;2024-02-14T04:26:47;100181.91;;;-7.76;61.71
82575;BME280;72260;65.870;13.210;2024-02-14T04:29:14;100169.91;;;-7.86;62.62
82575;BME280;72260;65.870;13.210;2024-02-14T04:31:40;100179.31;;;-7.87;62.01
82575;BME280;72260;65.870;13.210;2024-02-14T04:34:08;100166.53;;;-7.81;62.15
82575;BME280;72260;65.870;13.210;2024-02-14T04:36:35;100165.66;;;-7.84;63.47
82575;BME280;72260;65.870;13.210;2024-02-14T04:39:01;100173.38;;;-7.80;63.36
82575;BME280;72260;65.870;13.210;2024-02-14T04:41:27;100163.94;;;-7.84;63.76
82575;BME280;72260;65.870;13.210;2024-02-14T04:43:53;100158.78;;;-7.88;63.94
82575;BME280;72260;65.870;13.210;2024-02-14T04:46:18;100164.72;;;-7.97;64.57
82575;BME280;72260;65.870;13.210;2024-02-14T04:48:44;100167.31;;;-7.91;63.76
82575;BME280;72260;65.870;13.210;2024-02-14T04:51:09;100163.88;;;-7.96;62.31
82575;BME280;72260;65.870;13.210;2024-02-14T04:53:35;100172.47;;;-7.89;62.48
82575;BME280;72260;65.870;13.210;2024-02-14T04:56:01;100160.47;;;-7.90;61.37
82575;BME280;72260;65.870;13.210;2024-02-14T04:58:26;100166.41;;;-7.99;61.63
82575;BME280;72260;65.870;13.210;2024-02-14T05:00:52;100159.56;;;-8.03;61.20
82575;BME280;72260;65.870;13.210;2024-02-14T05:03:18;100164.69;;;-8.00;60.49
82575;BME280;72260;65.870;13.210;2024-02-14T05:05:44;100158.75;;;-7.96;61.03
82575;BME280;72260;65.870;13.210;2024-02-14T05:08:09;100162.09;;;-8.06;61.44
82575;BME280;72260;65.870;13.210;2024-02-14T05:10:35;100160.38;;;-8.15;61.67
82575;BME280;72260;65.870;13.210;2024-02-14T05:13:00;100164.56;;;-8.23;62.43
82575;BME280;72260;65.870;13.210;2024-02-14T05:15:29;100165.47;;;-8.12;62.38
82575;BME280;72260;65.870;13.210;2024-02-14T05:17:55;100149.25;;;-8.09;63.56
82575;BME280;72260;65.870;13.210;2024-02-14T05:20:21;100162.06;;;-8.09;63.50
82575;BME280;72260;65.870;13.210;2024-02-14T05:22:47;100153.53;;;-8.14;64.15
82575;BME280;72260;65.870;13.210;2024-02-14T05:25:12;100163.69;;;-8.26;63.82
82575;BME280;72260;65.870;13.210;2024-02-14T05:27:39;100157.78;;;-8.16;62.96
82575;BME280;72260;65.870;13.210;2024-02-14T05:30:05;100161.19;;;-8.17;63.37
82575;BME280;72260;65.870;13.210;2024-02-14T05:32:31;100172.31;;;-8.17;62.76
82575;BME280;72260;65.870;13.210;2024-02-14T05:34:58;100162.03;;;-8.21;62.27
82575;BME280;72260;65.870;13.210;2024-02-14T05:37:23;100161.97;;;-8.30;62.71
82575;BME280;72260;65.870;13.210;2024-02-14T05:39:49;100163.69;;;-8.28;61.69
82575;BME280;72260;65.870;13.210;2024-02-14T05:42:15;100156.00;;;-8.29;62.04
82575;BME280;72260;65.870;13.210;2024-02-14T05:44:42;100159.41;;;-8.33;62.05
82575;BME280;72260;65.870;13.210;2024-02-14T05:47:08;100155.22;;;-8.16;61.30
82575;BME280;72260;65.870;13.210;2024-02-14T05:49:35;100143.22;;;-8.20;61.32
82575;BME280;72260;65.870;13.210;2024-02-14T05:52:01;100153.47;;;-8.22;61.91
82575;BME280;72260;65.870;13.210;2024-02-14T05:54:26;100151.75;;;-8.23;61.51
82575;BME280;72260;65.870;13.210;2024-02-14T05:56:52;100154.28;;;-8.35;61.13
82575;BME280;72260;65.870;13.210;2024-02-14T05:59:17;100149.13;;;-8.32;62.03
82575;BME280;72260;65.870;13.210;2024-02-14T06:01:43;100155.09;;;-8.39;61.97
82575;BME280;72260;65.870;13.210;2024-02-14T06:04:08;100148.16;;;-8.55;62.53
82575;BME280;72260;65.870;13.210;2024-02-14T06:06:34;100154.19;;;-8.52;62.63
82575;BME280;72260;65.870;13.210;2024-02-14T06:08:59;100142.19;;;-8.56;62.37
82575;BME280;72260;65.870;13.210;2024-02-14T06:11:25;100144.81;;;-8.46;62.65
82575;BME280;72260;65.870;13.210;2024-02-14T06:13:50;100142.19;;;-8.56;62.28
82575;BME280;72260;65.870;13.210;2024-02-14T06:16:16;100137.13;;;-8.48;61.48
82575;BME280;72260;65.870;13.210;2024-02-14T06:18:41;100155.06;;;-8.46;61.96
82575;BME280;72260;65.870;13.210;2024-02-14T06:21:07;100155.88;;;-8.54;61.16
82575;BME280;72260;65.870;13.210;2024-02-14T06:23:33;100155.81;;;-8.61;62.16
82575;BME280;72260;65.870;13.210;2024-02-14T06:25:59;100166.03;;;-8.63;61.94
82575;BME280;72260;65.870;13.210;2024-02-14T06:28:24;100159.19;;;-8.64;61.40
82575;BME280;72260;65.870;13.210;2024-02-14T06:30:50;100170.31;;;-8.62;61.93
82575;BME280;72260;65.870;13.210;2024-02-14T06:33:15;100164.38;;;-8.58;62.32
82575;BME280;72260;65.870;13.210;2024-02-14T06:35:41;100160.91;;;-8.64;62.24
82575;BME280;72260;65.870;13.210;2024-02-14T06:38:07;100158.44;;;-8.52;62.61
82575;BME280;72260;65.870;13.210;2024-02-14T06:40:33;100167.88;;;-8.48;61.84
82575;BME280;72260;65.870;13.210;2024-02-14T06:42:58;100169.56;;;-8.50;60.57
82575;BME280;72260;65.870;13.210;2024-02-14T06:45:28;100171.22;;;-8.57;61.56
82575;BME280;72260;65.870;13.210;2024-02-14T06:47:54;100167.66;;;-8.72;62.43
82575;BME280;72260;65.870;13.210;2024-02-14T06:50:20;100176.16;;;-8.81;62.54
82575;BME280;72260;65.870;13.210;2024-02-14T06:52:45;100169.28;;;-8.85;62.93
82575;BME280;72260;65.870;13.210;2024-02-14T06:55:11;100167.50;;;-8.94;62.43
82575;BME280;72260;65.870;13.210;2024-02-14T06:57:37;100155.50;;;-8.96;62.11
82575;BME280;72260;65.870;13.210;2024-02-14T07:00:03;100161.53;;;-8.93;62.42
82575;BME280;72260;65.870;13.210;2024-02-14T07:02:31;100176.88;;;-8.94;61.81
82575;BME280;72260;65.870;13.210;2024-02-14T07:04:56;100175.97;;;-8.98;61.44
82575;BME280;72260;65.870;13.210;2024-02-14T07:07:22;100177.75;;;-8.91;62.06
82575;BME280;72260;65.870;13.210;2024-02-14T07:09:47;100169.13;;;-9.00;61.43
82575;BME280;72260;65.870;13.210;2024-02-14T07:12:13;100176.97;;;-8.85;61.20
82575;BME280;72260;65.870;13.210;2024-02-14T07:14:39;100173.44;;;-8.96;61.43
82575;BME280;72260;65.870;13.210;2024-02-14T07:17:04;100167.44;;;-8.98;60.93
82575;BME280;72260;65.870;13.210;2024-02-14T07:19:30;100181.97;;;-8.96;60.86
82575;BME280;72260;65.870;13.210;2024-02-14T07:21:55;100176.06;;;-8.89;60.43
82575;BME280;72260;65.870;13.210;2024-02-14T07:24:21;100164.91;;;-8.97;60.50
82575;BME280;72260;65.870;13.210;2024-02-14T07:26:47;100176.84;;;-8.96;60.16
82575;BME280;72260;65.870;13.210;2024-02-14T07:29:12;100173.31;;;-9.08;60.89
82575;BME280;72260;65.870;13.210;2024-02-14T07:31:38;100179.31;;;-9.05;61.31
82575;BME280;72260;65.870;13.210;2024-02-14T07:34:03;100175.91;;;-9.04;60.91
82575;BME280;72260;65.870;13.210;2024-02-14T07:36:29;100176.84;;;-8.97;61.12
82575;BME280;72260;65.870;13.210;2024-02-14T07:38:56;100184.63;;;-8.88;60.58
82575;BME280;72260;65.870;13.210;2024-02-14T07:41:21;100175.22;;;-8.88;60.32
82575;BME280;72260;65.870;13.210;2024-02-14T07:43:47;100173.47;;;-8.95;60.70
82575;BME280;72260;65.870;13.210;2024-02-14T07:46:17;100170.09;;;-8.88;60.25
82575;BME280;72260;65.870;13.210;2024-02-14T07:48:43;100166.78;;;-8.77;59.85
82575;BME280;72260;65.870;13.210;2024-02-14T07:51:10;100158.28;;;-8.70;60.64
82575;BME280;72260;65.870;13.210;2024-02-14T07:53:36;100161.75;;;-8.65;60.11
82575;BME280;72260;65.870;13.210;2024-02-14T07:56:01;100165.13;;;-8.71;60.37
82575;BME280;72260;65.870;13.210;2024-02-14T07:58:28;100173.66;;;-8.70;59.20
82575;BME280;72260;65.870;13.210;2024-02-14T08:00:53;100160.03;;;-8.65;59.02
82575;BME280;72260;65.870;13.210;2024-02-14T08:03:19;100155.84;;;-8.57;58.50
82575;BME280;72260;65.870;13.210;2024-02-14T08:05:44;100166.06;;;-8.58;58.65
82575;BME280;72260;65.870;13.210;2024-02-14T08:08:10;100161.72;;;-8.67;59.50
82575;BME280;72260;65.870;13.210;2024-02-14T08:10:35;100163.59;;;-8.48;58.44
82575;BME280;72260;65.870;13.210;2024-02-14T08:13:01;100160.19;;;-8.48;58.27
82575;BME280;72260;65.870;13.210;2024-02-14T08:15:29;100160.19;;;-8.48;58.95
82575;BME280;72260;65.870;13.210;2024-02-14T08:17:54;100156.72;;;-8.55;57.77
82575;BME280;72260;65.870;13.210;2024-02-14T08:20:22;100165.28;;;-8.50;58.37
82575;BME280;72260;65.870;13.210;2024-02-14T08:22:48;100157.63;;;-8.43;58.15
82575;BME280;72260;65.870;13.210;2024-02-14T08:25:14;100160.19;;;-8.43;57.76
82575;BME280;72260;65.870;13.210;2024-02-14T08:27:40;100158.47;;;-8.48;57.98
82575;BME280;72260;65.870;13.210;2024-02-14T08:30:07;100176.41;;;-8.48;58.62
82575;BME280;72260;65.870;13.210;2024-02-14T08:32:34;100167.03;;;-8.45;58.60
82575;BME280;72260;65.870;13.210;2024-02-14T08:35:00;100178.16;;;-8.39;58.00
82575;BME280;72260;65.870;13.210;2024-02-14T08:37:26;100181.63;;;-8.32;58.43
82575;BME280;72260;65.870;13.210;2024-02-14T08:39:52;100176.47;;;-8.31;58.25
82575;BME280;72260;65.870;13.210;2024-02-14T08:42:18;100175.69;;;-8.21;57.60
82575;BME280;72260;65.870;13.210;2024-02-14T08:44:44;100174.06;;;-8.13;56.83
82575;BME280;72260;65.870;13.210;2024-02-14T08:47:10;100169.78;;;-8.09;56.83
82575;BME280;72260;65.870;13.210;2024-02-14T08:49:36;100175.78;;;-8.02;56.91
82575;BME280;72260;65.870;13.210;2024-02-14T08:52:02;100169.06;;;-7.85;57.15
82575;BME280;72260;65.870;13.210;2024-02-14T08:54:28;100172.44;;;-7.91;56.29
82575;BME280;72260;65.870;13.210;2024-02-14T08:56:54;100168.19;;;-7.89;56.68
82575;BME280;72260;65.870;13.210;2024-02-14T08:59:21;100176.75;;;-7.84;56.87
82575;BME280;72260;65.870;13.210;2024-02-14T09:01:47;100173.34;;;-7.81;56.64
82575;BME280;72260;65.870;13.210;2024-02-14T09:04:14;100184.47;;;-7.74;56.08
82575;BME280;72260;65.870;13.210;2024-02-14T09:06:39;100183.66;;;-7.70;56.20
82575;BME280;72260;65.870;13.210;2024-02-14T09:09:07;100183.63;;;-7.72;55.56
82575;BME280;72260;65.870;13.210;2024-02-14T09:11:36;100181.16;;;-7.58;55.46
82575;BME280;72260;65.870;13.210;2024-02-14T09:14:02;100190.44;;;-7.79;55.21
82575;BME280;72260;65.870;13.210;2024-02-14T09:16:35;100184.53;;;-7.65;55.61
82575;BME280;72260;65.870;13.210;2024-02-14T09:19:02;100183.72;;;-7.58;55.50
82575;BME280;72260;65.870;13.210;2024-02-14T09:21:30;100186.19;;;-7.72;56.17
82575;BME280;72260;65.870;13.210;2024-02-14T09:23:56;100199.88;;;-7.74;55.95
82575;BME280;72260;65.870;13.210;2024-02-14T09:26:22;100187.06;;;-7.68;56.32
82575;BME280;72260;65.870;13.210;2024-02-14T09:28:48;100192.25;;;-7.59;55.88
82575;BME280;72260;65.870;13.210;2024-02-14T09:31:20;100199.97;;;-7.56;55.42
82575;BME280;72260;65.870;13.210;2024-02-14T09:33:47;100200.84;;;-7.54;55.51
82575;BME280;72260;65.870;13.210;2024-02-14T09:36:13;100200.84;;;-7.45;55.78
82575;BME280;72260;65.870;13.210;2024-02-14T09:38:40;100203.41;;;-7.47;55.27
82575;BME280;72260;65.870;13.210;2024-02-14T09:41:14;100191.47;;;-7.40;55.03
82575;BME280;72260;65.870;13.210;2024-02-14T09:43:44;100194.97;;;-7.20;55.00
82575;BME280;72260;65.870;13.210;2024-02-14T09:46:39;100184.66;;;-7.26;55.61
82575;BME280;72260;65.870;13.210;2024-02-14T09:49:06;100199.22;;;-7.13;54.62
82575;BME280;72260;65.870;13.210;2024-02-14T09:51:32;100198.44;;;-6.98;54.38
82575;BME280;72260;65.870;13.210;2024-02-14T09:54:00;100202.72;;;-6.88;55.77
82575;BME280;72260;65.870;13.210;2024-02-14T09:56:26;100195.88;;;-6.83;55.04
82575;BME280;72260;65.870;13.210;2024-02-14T09:58:53;100195.00;;;-6.79;55.37
82575;BME280;72260;65.870;13.210;2024-02-14T10:01:25;100192.47;;;-6.88;55.40
82575;BME280;72260;65.870;13.210;2024-02-14T10:03:52;100171.88;;;-6.92;55.69
82575;BME280;72260;65.870;13.210;2024-02-14T10:06:18;100189.88;;;-6.79;55.46
82575;BME280;72260;65.870;13.210;2024-02-14T10:08:52;100187.31;;;-6.63;55.19
82575;BME280;72260;65.870;13.210;2024-02-14T10:11:18;100198.47;;;-6.58;54.59
82575;BME280;72260;65.870;13.210;2024-02-14T10:13:47;100196.75;;;-6.62;54.38
82575;BME280;72260;65.870;13.210;2024-02-14T10:16:14;100200.19;;;-6.57;55.63
82575;BME280;72260;65.870;13.210;2024-02-14T10:18:40;100201.03;;;-6.37;54.80
82575;BME280;72260;65.870;13.210;2024-02-14T10:21:08;100190.69;;;-6.10;54.12
82575;BME280;72260;65.870;13.210;2024-02-14T10:23:34;100201.00;;;-6.11;53.86
82575;BME280;72260;65.870;13.210;2024-02-14T10:26:02;100199.28;;;-6.09;53.58
82575;BME280;72260;65.870;13.210;2024-02-14T10:28:27;100195.81;;;-5.96;53.86
82575;BME280;72260;65.870;13.210;2024-02-14T10:30:54;100191.53;;;-5.91;54.05
82575;BME280;72260;65.870;13.210;2024-02-14T10:33:20;100199.25;;;-5.95;52.72
82575;BME280;72260;65.870;13.210;2024-02-14T10:35:47;100199.28;;;-6.07;53.85
82575;BME280;72260;65.870;13.210;2024-02-14T10:38:15;100201.88;;;-6.23;53.94
82575;BME280;72260;65.870;13.210;2024-02-14T10:40:47;100193.31;;;-6.34;54.35
82575;BME280;72260;65.870;13.210;2024-02-14T10:43:13;100201.88;;;-6.33;54.40
82575;BME280;72260;65.870;13.210;2024-02-14T10:45:39;100191.59;;;-6.26;54.05
82575;BME280;72260;65.870;13.210;2024-02-14T10:48:05;100192.44;;;-6.33;54.13
82575;BME280;72260;65.870;13.210;2024-02-14T10:50:36;100183.88;;;-6.49;54.83
82575;BME280;72260;65.870;13.210;2024-02-14T10:53:09;100184.75;;;-6.34;54.84
82575;BME280;72260;65.870;13.210;2024-02-14T10:55:40;100182.16;;;-6.21;53.87
82575;BME280;72260;65.870;13.210;2024-02-14T10:58:08;100183.88;;;-6.23;54.81
82575;BME280;72260;65.870;13.210;2024-02-14T11:00:37;100176.97;;;-5.96;53.58
82575;BME280;72260;65.870;13.210;2024-02-14T11:03:03;100178.63;;;-5.85;53.04
82575;BME280;72260;65.870;13.210;2024-02-14T11:05:30;100177.69;;;-5.70;52.47
82575;BME280;72260;65.870;13.210;2024-02-14T11:07:56;100174.25;;;-5.67;52.67
82575;BME280;72260;65.870;13.210;2024-02-14T11:10:37;100183.66;;;-5.56;52.34
82575;BME280;72260;65.870;13.210;2024-02-14T11:13:03;100178.47;;;-5.50;52.23
82575;BME280;72260;65.870;13.210;2024-02-14T11:15:28;100172.41;;;-5.35;51.47
82575;BME280;72260;65.870;13.210;2024-02-14T11:18:05;100166.34;;;-5.25;52.07
82575;BME280;72260;65.870;13.210;2024-02-14T11:20:34;100168.06;;;-5.28;51.98
82575;BME280;72260;65.870;13.210;2024-02-14T11:23:05;100171.47;;;-5.22;51.70
82575;BME280;72260;65.870;13.210;2024-02-14T11:25:34;100167.19;;;-5.21;51.60
82575;BME280;72260;65.870;13.210;2024-02-14T11:28:18;100164.63;;;-5.24;51.44
82575;BME280;72260;65.870;13.210;2024-02-14T11:30:48;100162.13;;;-5.43;51.65
82575;BME280;72260;65.870;13.210;2024-02-14T11:35:48;100165.69;;;-5.77;52.99
82575;BME280;72260;65.870;13.210;2024-02-14T11:38:15;100176.03;;;-5.85;53.53
82575;BME280;72260;65.870;13.210;2024-02-14T11:40:41;100164.94;;;-5.97;54.07
82575;BME280;72260;65.870;13.210;2024-02-14T11:43:11;100165.75;;;-5.88;53.68
82575;BME280;72260;65.870;13.210;2024-02-14T11:45:38;100168.28;;;-5.83;53.42
82575;BME280;72260;65.870;13.210;2024-02-14T11:48:08;100177.72;;;-5.76;53.47
82575;BME280;72260;65.870;13.210;2024-02-14T11:50:34;100180.28;;;-5.76;53.80
82575;BME280;72260;65.870;13.210;2024-02-14T11:52:59;100174.22;;;-5.60;51.93
82575;BME280;72260;65.870;13.210;2024-02-14T11:55:31;100182.84;;;-5.75;52.44
82575;BME280;72260;65.870;13.210;2024-02-14T11:58:00;100181.16;;;-5.79;52.40
82575;BME280;72260;65.870;13.210;2024-02-14T12:00:25;100171.63;;;-5.52;51.28
82575;BME280;72260;65.870;13.210;2024-02-14T12:02:51;100181.72;;;-5.16;50.23
82575;BME280;72260;65.870;13.210;2024-02-14T12:05:18;100181.66;;;-5.03;50.78
82575;BME280;72260;65.870;13.210;2024-02-14T12:07:44;100173.06;;;-5.01;50.64
82575;BME280;72260;65.870;13.210;2024-02-14T12:10:13;100169.69;;;-5.15;52.65
82575;BME280;72260;65.870;13.210;2024-02-14T12:12:39;100173.91;;;-5.00;51.53
82575;BME280;72260;65.870;13.210;2024-02-14T12:15:08;100166.97;;;-4.89;50.83
82575;BME280;72260;65.870;13.210;2024-02-14T12:17:34;100163.38;;;-4.68;50.14
82575;BME280;72260;65.870;13.210;2024-02-14T12:20:09;100167.69;;;-4.74;51.45
82575;BME280;72260;65.870;13.210;2024-02-14T12:22:37;100178.03;;;-4.78;51.60
82575;BME280;72260;65.870;13.210;2024-02-14T12:25:02;100162.59;;;-4.83;51.64
82575;BME280;72260;65.870;13.210;2024-02-14T12:27:33;100156.59;;;-4.85;51.46
82575;BME280;72260;65.870;13.210;2024-02-14T12:29:59;100171.97;;;-4.71;51.61
82575;BME280;72260;65.870;13.210;2024-02-14T12:32:24;100157.31;;;-4.63;51.15
82575;BME280;72260;65.870;13.210;2024-02-14T12:34:50;100169.16;;;-4.44;50.82
82575;BME280;72260;65.870;13.210;2024-02-14T12:37:15;100162.19;;;-4.31;50.95
82575;BME280;72260;65.870;13.210;2024-02-14T12:39:41;100165.59;;;-4.27;50.58